Time;durP1;ratioP1;P1;durP2;ratioP2;P2;SDS_P1;SDS_P2;PMS_P1;PMS_P2;Temp;Humidity;BMP_temperature;BMP_pressure;BME280_temperature;BME280_humidity;BME280_pressure;Samples;Min_cycle;Max_cycle;Signal;HPM_P1;HPM_P2
2022/12/24 00:01:08;;;;;;;;;;;9.80;99.90;;;;;;5052827;28;20338;-82
2022/12/24 00:03:35;;;;;;;;;;;9.80;99.90;;;;;;5053183;28;19916;-83
2022/12/24 00:06:09;;;;;;;;;;;9.80;99.90;;;;;;5053572;28;19948;-77
2022/12/24 00:08:35;;;;;;;;;;;9.80;99.90;;;;;;5051417;28;19913;-82
2022/12/24 00:11:01;;;;;;;;;;;9.80;99.90;;;;;;5054496;28;19939;-82
2022/12/24 00:13:26;;;;;;;;;;;9.80;99.90;;;;;;5049824;28;19920;-80
2022/12/24 00:15:52;;;;;;;;;;;9.80;99.90;;;;;;5053509;28;20263;-81
2022/12/24 00:18:18;;;;;;;;;;;9.80;99.90;;;;;;5047994;28;19920;-82
2022/12/24 00:20:47;;;;;;;;;;;9.80;99.90;;;;;;5052001;28;19913;-80
2022/12/24 00:23:13;;;;;;;;;;;9.80;99.90;;;;;;5049182;28;20314;-82
2022/12/24 00:25:39;;;;;;;;;;;9.80;99.90;;;;;;5050503;28;19924;-82
2022/12/24 00:28:04;;;;;;;;;;;9.80;99.90;;;;;;5051049;28;19916;-79
2022/12/24 00:30:30;;;;;;;;;;;9.80;99.90;;;;;;5050233;28;19916;-81
2022/12/24 00:32:56;;;;;;;;;;;9.80;99.90;;;;;;5053294;28;19913;-79
2022/12/24 00:35:22;;;;;;;;;;;9.80;99.90;;;;;;5052508;28;20564;-80
2022/12/24 00:37:47;;;;;;;;;;;9.80;99.90;;;;;;5053571;28;20228;-79
2022/12/24 00:40:13;;;;;;;;;;;9.70;99.90;;;;;;5052182;28;19920;-79
2022/12/24 00:42:39;;;;;;;;;;;9.70;99.90;;;;;;5045892;28;19920;-79
2022/12/24 00:45:05;;;;;;;;;;;9.60;99.90;;;;;;5052186;28;19920;-80
2022/12/24 00:47:30;;;;;;;;;;;9.60;99.90;;;;;;5050200;28;20375;-79
2022/12/24 00:49:56;;;;;;;;;;;9.60;99.90;;;;;;5052837;28;19919;-78
2022/12/24 00:52:22;;;;;;;;;;;9.50;99.90;;;;;;5049895;28;19909;-76
2022/12/24 00:54:47;;;;;;;;;;;9.50;99.90;;;;;;5052838;28;19913;-76
2022/12/24 00:57:13;;;;;;;;;;;9.50;99.90;;;;;;5048139;28;20312;-78
2022/12/24 00:59:39;;;;;;;;;;;9.50;99.90;;;;;;5052415;28;20266;-79
2022/12/24 01:02:04;;;;;;;;;;;9.50;99.90;;;;;;5052085;28;20208;-78
2022/12/24 01:07:14;;;;;;;;;;;9.50;99.90;;;;;;5051367;28;19928;-77
2022/12/24 01:09:40;;;;;;;;;;;9.40;99.90;;;;;;5068563;28;19913;-80
2022/12/24 01:12:06;;;;;;;;;;;9.40;99.90;;;;;;5051029;28;19920;-76
2022/12/24 01:14:31;;;;;;;;;;;9.40;99.90;;;;;;5056467;28;19913;-81
2022/12/24 01:16:57;;;;;;;;;;;9.30;99.90;;;;;;5052707;28;19913;-80
2022/12/24 01:19:23;;;;;;;;;;;9.30;99.90;;;;;;5056067;28;19971;-81
2022/12/24 01:21:48;;;;;;;;;;;9.20;99.90;;;;;;5055383;28;20303;-78
2022/12/24 01:24:14;;;;;;;;;;;9.10;99.90;;;;;;5053709;28;19923;-77
2022/12/24 01:26:40;;;;;;;;;;;9.10;99.90;;;;;;5055738;28;19966;-81
2022/12/24 01:29:06;;;;;;;;;;;9.00;99.90;;;;;;5052534;28;19917;-79
2022/12/24 01:31:31;;;;;;;;;;;8.90;99.90;;;;;;5055930;28;19951;-80
2022/12/24 01:33:57;;;;;;;;;;;8.90;99.90;;;;;;5055347;28;19913;-83
2022/12/24 01:36:23;;;;;;;;;;;8.80;99.90;;;;;;5047076;28;19913;-80
2022/12/24 01:38:48;;;;;;;;;;;8.80;99.90;;;;;;5055931;28;20016;-80
2022/12/24 01:44:15;;;;;;;;;;;8.80;99.90;;;;;;5056148;28;20322;-80
2022/12/24 01:46:40;;;;;;;;;;;8.80;99.90;;;;;;5049630;28;19921;-79
2022/12/24 01:49:08;;;;;;;;;;;8.70;99.90;;;;;;5048851;28;19939;-80
2022/12/24 01:51:37;;;;;;;;;;;8.70;99.90;;;;;;5055241;28;19923;-78
2022/12/24 01:54:10;;;;;;;;;;;8.70;99.90;;;;;;5054806;28;19951;-81
2022/12/24 01:56:38;;;;;;;;;;;8.70;99.90;;;;;;5054973;28;20300;-77
2022/12/24 01:59:05;;;;;;;;;;;8.70;99.90;;;;;;5054845;28;19916;-80
2022/12/24 02:01:31;;;;;;;;;;;8.70;99.90;;;;;;5054409;28;20066;-79
2022/12/24 02:03:57;;;;;;;;;;;8.70;99.90;;;;;;5054400;28;20751;-80
2022/12/24 02:06:23;;;;;;;;;;;8.70;99.90;;;;;;5056173;28;19917;-78
2022/12/24 02:08:49;;;;;;;;;;;8.60;99.90;;;;;;5067979;28;19909;-81
2022/12/24 02:11:16;;;;;;;;;;;8.50;99.90;;;;;;5056443;28;19913;-77
2022/12/24 02:13:44;;;;;;;;;;;8.50;99.90;;;;;;5049920;28;19998;-79
2022/12/24 02:16:29;;;;;;;;;;;8.40;99.90;;;;;;5056494;28;19909;-79
2022/12/24 02:19:15;;;;;;;;;;;8.30;99.90;;;;;;5037393;28;19917;-80
2022/12/24 02:22:01;;;;;;;;;;;8.30;99.90;;;;;;5052636;28;19909;-79
2022/12/24 02:24:35;;;;;;;;;;;8.30;99.90;;;;;;5048267;28;19920;-79
2022/12/24 02:27:00;;;;;;;;;;;8.20;99.90;;;;;;5052050;28;19932;-79
2022/12/24 02:29:37;;;;;;;;;;;8.20;99.90;;;;;;5055160;28;19934;-78
2022/12/24 02:32:02;;;;;;;;;;;8.20;99.90;;;;;;5053400;28;19931;-76
2022/12/24 02:34:31;;;;;;;;;;;8.30;99.90;;;;;;5050915;28;20219;-79
2022/12/24 02:37:01;;;;;;;;;;;8.30;99.90;;;;;;5047236;28;19909;-77
2022/12/24 02:39:32;;;;;;;;;;;8.30;99.90;;;;;;5054728;28;19974;-78
2022/12/24 02:42:06;;;;;;;;;;;8.30;99.90;;;;;;5056133;28;19929;-78
2022/12/24 02:44:52;;;;;;;;;;;8.30;99.90;;;;;;5054468;28;19927;-82
2022/12/24 02:47:20;;;;;;;;;;;8.30;99.90;;;;;;5054498;28;19916;-79
2022/12/24 02:49:46;;;;;;;;;;;8.30;99.90;;;;;;5054406;28;19913;-80
2022/12/24 02:52:32;;;;;;;;;;;8.20;99.90;;;;;;5044006;28;19909;-81
2022/12/24 02:55:00;;;;;;;;;;;8.20;99.90;;;;;;5049068;28;19947;-79
2022/12/24 02:58:01;;;;;;;;;;;8.10;99.90;;;;;;5048378;28;19912;-79
2022/12/24 03:00:31;;;;;;;;;;;8.10;99.90;;;;;;4944036;28;19922;-79
2022/12/24 03:03:06;;;;;;;;;;;8.00;99.90;;;;;;5042580;28;19920;-79
2022/12/24 03:05:45;;;;;;;;;;;7.90;99.90;;;;;;5053365;28;19913;-78
2022/12/24 03:08:14;;;;;;;;;;;7.90;99.90;;;;;;5052444;28;19951;-77
2022/12/24 03:10:39;;;;;;;;;;;7.80;99.90;;;;;;5053963;28;20377;-78
2022/12/24 03:13:09;;;;;;;;;;;7.80;99.90;;;;;;5055161;28;19950;-78
2022/12/24 03:15:35;;;;;;;;;;;7.70;99.90;;;;;;5049714;28;19913;-80
2022/12/24 03:18:02;;;;;;;;;;;7.70;99.90;;;;;;5054363;28;19909;-78
2022/12/24 03:20:54;;;;;;;;;;;7.60;99.90;;;;;;5044115;28;19916;-77
2022/12/24 03:23:19;;;;;;;;;;;7.60;99.90;;;;;;5039475;28;19955;-82
2022/12/24 03:25:45;;;;;;;;;;;7.60;99.90;;;;;;5050003;28;19913;-78
2022/12/24 03:28:12;;;;;;;;;;;7.60;99.90;;;;;;5049709;28;19915;-80
2022/12/24 03:30:39;;;;;;;;;;;7.60;99.90;;;;;;5045589;28;19913;-77
2022/12/24 03:33:05;;;;;;;;;;;7.60;99.90;;;;;;5054369;28;19916;-79
2022/12/24 03:35:30;;;;;;;;;;;7.60;99.90;;;;;;5053009;28;19913;-78
2022/12/24 03:37:56;;;;;;;;;;;7.70;99.90;;;;;;5047612;28;19923;-78
2022/12/24 03:40:22;;;;;;;;;;;7.70;99.90;;;;;;5049249;28;19917;-77
2022/12/24 03:42:47;;;;;;;;;;;7.70;99.90;;;;;;5053963;28;20353;-78
2022/12/24 03:45:13;;;;;;;;;;;7.80;99.90;;;;;;5053569;28;19924;-78
2022/12/24 03:47:39;;;;;;;;;;;7.80;99.90;;;;;;5053554;28;19919;-77
2022/12/24 03:50:05;;;;;;;;;;;7.80;99.90;;;;;;5053747;28;19916;-78
2022/12/24 03:52:31;;;;;;;;;;;7.90;99.90;;;;;;5053804;28;19974;-80
2022/12/24 03:54:56;;;;;;;;;;;7.90;99.90;;;;;;5050468;28;20292;-78
2022/12/24 03:57:22;;;;;;;;;;;8.00;99.90;;;;;;5053460;28;19916;-77
2022/12/24 03:59:48;;;;;;;;;;;8.00;99.90;;;;;;5052100;28;19916;-78
2022/12/24 04:02:13;;;;;;;;;;;8.00;99.90;;;;;;5053963;28;19966;-78
2022/12/24 04:04:39;;;;;;;;;;;8.00;99.90;;;;;;5054379;28;20295;-79
2022/12/24 04:07:05;;;;;;;;;;;8.00;99.90;;;;;;5052723;28;20223;-77
2022/12/24 04:09:31;;;;;;;;;;;8.00;99.90;;;;;;5053368;28;19966;-79
2022/12/24 04:11:56;;;;;;;;;;;8.00;99.90;;;;;;5050911;28;20264;-77
2022/12/24 04:14:22;;;;;;;;;;;8.00;99.90;;;;;;5054505;28;19931;-78
2022/12/24 04:16:48;;;;;;;;;;;8.00;99.90;;;;;;5052442;28;19996;-79
2022/12/24 04:19:13;;;;;;;;;;;8.10;99.90;;;;;;5053533;28;19935;-81
2022/12/24 04:21:39;;;;;;;;;;;8.10;99.90;;;;;;5052337;28;19912;-78
2022/12/24 04:24:05;;;;;;;;;;;8.10;99.90;;;;;;5052520;28;19913;-77
2022/12/24 04:26:31;;;;;;;;;;;8.20;99.90;;;;;;5051717;28;20357;-78
2022/12/24 04:28:56;;;;;;;;;;;8.20;99.90;;;;;;5052749;28;19924;-79
2022/12/24 04:31:22;;;;;;;;;;;8.20;99.90;;;;;;5052979;28;19909;-80
2022/12/24 04:33:49;;;;;;;;;;;8.30;99.90;;;;;;5062274;28;19948;-78
2022/12/24 04:36:18;;;;;;;;;;;8.30;99.90;;;;;;5049986;28;19919;-80
2022/12/24 04:38:44;;;;;;;;;;;8.40;99.90;;;;;;5053971;28;19916;-80
2022/12/24 04:41:17;;;;;;;;;;;8.40;99.90;;;;;;5053006;28;20012;-78
2022/12/24 04:43:43;;;;;;;;;;;8.40;99.90;;;;;;5043977;28;19913;-79
2022/12/24 04:46:10;;;;;;;;;;;8.40;99.90;;;;;;5048076;28;19913;-77
2022/12/24 04:48:37;;;;;;;;;;;8.50;99.90;;;;;;5055578;28;19915;-78
2022/12/24 04:51:03;;;;;;;;;;;8.60;99.90;;;;;;5057645;28;20311;-78
2022/12/24 04:53:29;;;;;;;;;;;8.60;99.90;;;;;;5058139;28;19937;-78
2022/12/24 04:55:54;;;;;;;;;;;8.60;99.90;;;;;;5057677;28;20279;-78
2022/12/24 04:58:20;;;;;;;;;;;8.60;99.90;;;;;;5056968;28;19913;-78
2022/12/24 05:00:46;;;;;;;;;;;8.60;99.90;;;;;;5055682;28;19917;-80
2022/12/24 05:03:11;;;;;;;;;;;8.70;99.90;;;;;;5055836;28;19920;-81
2022/12/24 05:05:37;;;;;;;;;;;8.70;99.90;;;;;;5055713;28;19917;-78
2022/12/24 05:08:03;;;;;;;;;;;8.70;99.90;;;;;;5054059;28;19917;-78
2022/12/24 05:10:29;;;;;;;;;;;8.70;99.90;;;;;;5054763;28;20000;-78
2022/12/24 05:12:55;;;;;;;;;;;8.70;99.90;;;;;;5050980;28;19962;-78
2022/12/24 05:15:20;;;;;;;;;;;8.70;99.90;;;;;;5055997;28;19998;-78
2022/12/24 05:17:46;;;;;;;;;;;8.80;99.90;;;;;;5056409;28;19995;-79
2022/12/24 05:20:12;;;;;;;;;;;8.70;99.90;;;;;;5056130;28;19915;-79
2022/12/24 05:28:06;;;;;;;;;;;8.80;99.90;;;;;;5056263;28;19919;-79
2022/12/24 05:30:31;;;;;;;;;;;8.80;99.90;;;;;;5053093;28;19909;-78
2022/12/24 05:32:57;;;;;;;;;;;8.80;99.90;;;;;;5055062;28;20001;-78
2022/12/24 05:35:23;;;;;;;;;;;8.80;99.90;;;;;;5053685;28;20335;-77
2022/12/24 05:37:49;;;;;;;;;;;8.80;99.90;;;;;;5056239;28;19916;-78
2022/12/24 05:40:14;;;;;;;;;;;8.80;99.90;;;;;;5053481;28;20361;-80
2022/12/24 05:42:40;;;;;;;;;;;8.80;99.90;;;;;;5055739;28;19920;-79
2022/12/24 05:45:06;;;;;;;;;;;8.80;99.90;;;;;;5044017;28;20303;-79
2022/12/24 05:47:32;;;;;;;;;;;8.70;99.90;;;;;;5051116;28;19909;-80
2022/12/24 05:49:57;;;;;;;;;;;8.80;99.90;;;;;;5056954;28;19916;-79
2022/12/24 05:52:23;;;;;;;;;;;8.80;99.90;;;;;;5055647;28;19916;-80
2022/12/24 05:54:48;;;;;;;;;;;8.80;99.90;;;;;;5055582;28;20321;-78
2022/12/24 05:57:15;;;;;;;;;;;8.80;99.90;;;;;;5056345;28;19932;-78
2022/12/24 05:59:40;;;;;;;;;;;8.80;99.90;;;;;;5054350;28;19990;-77
2022/12/24 06:02:06;;;;;;;;;;;8.80;99.90;;;;;;5054566;28;19913;-79
2022/12/24 06:04:32;;;;;;;;;;;8.80;99.90;;;;;;5056473;28;19978;-80
2022/12/24 06:06:57;;;;;;;;;;;8.80;99.90;;;;;;5048638;28;20001;-80
2022/12/24 06:09:23;;;;;;;;;;;8.80;99.90;;;;;;5046696;28;20235;-78
2022/12/24 06:11:49;;;;;;;;;;;8.80;99.90;;;;;;5050836;28;19949;-78
2022/12/24 06:14:14;;;;;;;;;;;8.80;99.90;;;;;;5049162;28;19916;-78
2022/12/24 06:16:40;;;;;;;;;;;8.80;99.90;;;;;;5047583;28;19920;-81
2022/12/24 06:19:05;;;;;;;;;;;8.80;99.90;;;;;;5053240;28;19924;-78
2022/12/24 06:21:31;;;;;;;;;;;8.80;99.90;;;;;;5054627;28;20011;-78
2022/12/24 06:23:57;;;;;;;;;;;8.80;99.90;;;;;;5055907;28;19908;-77
2022/12/24 06:26:22;;;;;;;;;;;8.80;99.90;;;;;;5053109;28;19923;-78
2022/12/24 06:28:48;;;;;;;;;;;8.80;99.90;;;;;;5055063;28;20323;-77
2022/12/24 06:31:16;;;;;;;;;;;8.80;99.90;;;;;;5050661;28;19913;-78
2022/12/24 06:33:42;;;;;;;;;;;8.80;99.90;;;;;;5053651;28;20315;-81
2022/12/24 06:36:08;;;;;;;;;;;8.80;99.90;;;;;;5049388;28;20248;-78
2022/12/24 06:38:34;;;;;;;;;;;8.90;99.90;;;;;;5051148;28;19913;-78
2022/12/24 06:41:03;;;;;;;;;;;8.90;99.90;;;;;;5052324;28;20051;-77
2022/12/24 06:43:29;;;;;;;;;;;8.90;99.90;;;;;;5051596;28;19916;-79
2022/12/24 06:45:55;;;;;;;;;;;8.80;99.90;;;;;;5051359;28;20227;-78
2022/12/24 06:48:20;;;;;;;;;;;8.80;99.90;;;;;;5054429;28;19912;-81
2022/12/24 06:50:46;;;;;;;;;;;8.80;99.90;;;;;;5050388;28;20047;-78
2022/12/24 06:53:12;;;;;;;;;;;8.90;99.90;;;;;;5055403;28;19987;-78
2022/12/24 06:55:38;;;;;;;;;;;8.90;99.90;;;;;;5056021;28;19916;-80
2022/12/24 06:58:04;;;;;;;;;;;8.90;99.90;;;;;;5053719;28;19913;-80
2022/12/24 07:00:30;;;;;;;;;;;8.80;99.90;;;;;;5054402;28;19909;-81
2022/12/24 07:02:56;;;;;;;;;;;8.80;99.90;;;;;;5051931;28;19974;-80
2022/12/24 07:05:21;;;;;;;;;;;8.80;99.90;;;;;;5055178;28;20189;-78
2022/12/24 07:07:47;;;;;;;;;;;8.80;99.90;;;;;;5051287;28;19948;-79
2022/12/24 07:10:14;;;;;;;;;;;8.80;99.90;;;;;;5053489;28;20027;-84
2022/12/24 07:12:40;;;;;;;;;;;8.80;99.90;;;;;;5053990;28;20383;-79
2022/12/24 07:15:06;;;;;;;;;;;8.80;99.90;;;;;;5050007;28;19999;-78
2022/12/24 07:17:32;;;;;;;;;;;8.80;99.90;;;;;;5049632;28;19919;-84
2022/12/24 07:19:57;;;;;;;;;;;8.80;99.90;;;;;;5052395;28;19910;-78
2022/12/24 07:22:23;;;;;;;;;;;8.80;99.90;;;;;;5055696;28;20278;-78
2022/12/24 07:24:49;;;;;;;;;;;8.80;99.90;;;;;;5057018;28;20359;-78
2022/12/24 07:27:15;;;;;;;;;;;8.80;99.90;;;;;;5053870;28;19939;-78
2022/12/24 07:29:40;;;;;;;;;;;8.80;99.90;;;;;;5050727;28;19996;-78
2022/12/24 07:32:06;;;;;;;;;;;8.80;99.90;;;;;;5067881;28;19913;-80
2022/12/24 07:34:31;;;;;;;;;;;8.80;99.90;;;;;;5050671;28;20406;-82
2022/12/24 07:36:57;;;;;;;;;;;8.80;99.90;;;;;;5049972;28;19916;-79
2022/12/24 07:39:23;;;;;;;;;;;8.80;99.90;;;;;;5053349;28;20327;-81
2022/12/24 07:41:49;;;;;;;;;;;8.80;99.90;;;;;;5050557;28;20319;-79
2022/12/24 07:44:15;;;;;;;;;;;8.80;99.90;;;;;;5053063;28;19913;-80
2022/12/24 07:46:41;;;;;;;;;;;8.80;99.90;;;;;;5052946;28;20303;-79
2022/12/24 07:49:06;;;;;;;;;;;8.90;99.90;;;;;;5052858;28;20403;-78
2022/12/24 07:51:32;;;;;;;;;;;8.90;99.90;;;;;;5035358;28;19928;-78
2022/12/24 07:53:58;;;;;;;;;;;8.90;99.90;;;;;;5051104;28;20027;-80
2022/12/24 07:56:24;;;;;;;;;;;8.80;99.90;;;;;;5053430;28;19924;-79
2022/12/24 07:58:50;;;;;;;;;;;8.80;99.90;;;;;;5053555;28;19913;-79
2022/12/24 08:01:16;;;;;;;;;;;8.80;99.90;;;;;;5050725;28;19913;-80
2022/12/24 08:03:42;;;;;;;;;;;8.80;99.90;;;;;;5045006;28;19913;-79
2022/12/24 08:06:08;;;;;;;;;;;8.80;99.90;;;;;;5045949;28;19983;-79
2022/12/24 08:08:33;;;;;;;;;;;8.80;99.90;;;;;;5050276;28;19920;-80
2022/12/24 08:11:00;;;;;;;;;;;8.80;99.90;;;;;;5052079;28;19975;-79
2022/12/24 08:13:26;;;;;;;;;;;8.80;99.90;;;;;;5047866;28;19917;-79
2022/12/24 08:15:52;;;;;;;;;;;8.80;99.90;;;;;;5050176;28;19913;-81
2022/12/24 08:18:17;;;;;;;;;;;8.80;99.90;;;;;;5052944;28;19909;-77
2022/12/24 08:20:43;;;;;;;;;;;8.80;99.90;;;;;;5044059;28;19917;-81
2022/12/24 08:23:09;;;;;;;;;;;8.80;99.90;;;;;;5048339;28;19954;-81
2022/12/24 08:25:35;;;;;;;;;;;8.80;99.90;;;;;;5044033;28;20455;-82
2022/12/24 08:28:00;;;;;;;;;;;8.80;99.90;;;;;;5052755;28;19979;-79
2022/12/24 08:30:26;;;;;;;;;;;8.80;99.90;;;;;;5051166;28;19917;-78
2022/12/24 08:32:53;;;;;;;;;;;8.70;99.90;;;;;;5047821;28;19912;-82
2022/12/24 08:35:19;;;;;;;;;;;8.70;99.90;;;;;;5051909;28;19920;-81
2022/12/24 08:37:44;;;;;;;;;;;8.70;99.90;;;;;;5045042;28;20011;-81
2022/12/24 08:40:10;;;;;;;;;;;8.80;99.90;;;;;;5044272;28;19917;-79
2022/12/24 08:42:36;;;;;;;;;;;8.80;99.90;;;;;;5051161;28;19917;-80
2022/12/24 08:45:02;;;;;;;;;;;8.80;99.90;;;;;;5050148;28;20211;-81
2022/12/24 08:47:28;;;;;;;;;;;8.80;99.90;;;;;;5053572;28;19923;-80
2022/12/24 08:49:53;;;;;;;;;;;8.80;99.90;;;;;;5053413;28;19999;-81
2022/12/24 08:52:19;;;;;;;;;;;8.80;99.90;;;;;;5053735;28;19912;-81
2022/12/24 08:54:45;;;;;;;;;;;8.80;99.90;;;;;;5050929;28;19921;-80
2022/12/24 08:57:10;;;;;;;;;;;8.80;99.90;;;;;;5051163;28;19908;-81
2022/12/24 08:59:36;;;;;;;;;;;8.80;99.90;;;;;;5052185;28;19920;-79
2022/12/24 09:02:02;;;;;;;;;;;8.70;99.90;;;;;;5052178;28;20019;-81
2022/12/24 09:04:27;;;;;;;;;;;8.80;99.90;;;;;;5053338;28;19915;-78
2022/12/24 09:06:53;;;;;;;;;;;8.80;99.90;;;;;;5053034;28;19923;-79
2022/12/24 09:09:19;;;;;;;;;;;8.80;99.90;;;;;;5038795;28;19921;-79
2022/12/24 09:11:44;;;;;;;;;;;8.80;99.90;;;;;;5067473;28;20032;-80
2022/12/24 09:14:10;;;;;;;;;;;8.80;99.90;;;;;;5047794;28;20186;-79
2022/12/24 09:16:36;;;;;;;;;;;8.80;99.90;;;;;;5052036;28;19917;-79
2022/12/24 09:19:02;;;;;;;;;;;8.90;99.90;;;;;;5049584;28;19917;-81
2022/12/24 09:21:28;;;;;;;;;;;8.90;99.90;;;;;;5053633;28;19909;-77
2022/12/24 09:23:53;;;;;;;;;;;8.90;99.90;;;;;;5052391;28;19913;-80
2022/12/24 09:26:21;;;;;;;;;;;9.00;99.90;;;;;;5051803;28;19978;-80
2022/12/24 09:28:47;;;;;;;;;;;9.00;99.90;;;;;;5049523;28;19916;-78
2022/12/24 09:31:13;;;;;;;;;;;9.00;99.90;;;;;;5052141;28;19917;-80
2022/12/24 09:33:39;;;;;;;;;;;8.90;99.90;;;;;;5054497;28;20288;-81
2022/12/24 09:36:06;;;;;;;;;;;8.90;99.90;;;;;;5048636;28;19917;-80
2022/12/24 09:38:32;;;;;;;;;;;9.00;99.90;;;;;;5040713;28;19917;-77
2022/12/24 09:40:59;;;;;;;;;;;9.00;99.90;;;;;;5055652;28;19978;-78
2022/12/24 09:43:29;;;;;;;;;;;9.10;99.90;;;;;;5055818;28;19963;-80
2022/12/24 09:46:04;;;;;;;;;;;9.20;99.90;;;;;;5056044;28;19939;-79
2022/12/24 09:48:32;;;;;;;;;;;9.20;99.90;;;;;;5054856;28;19974;-81
2022/12/24 09:51:01;;;;;;;;;;;9.20;99.90;;;;;;5046659;28;20606;-78
2022/12/24 09:53:44;;;;;;;;;;;9.20;99.90;;;;;;5055619;28;19909;-77
2022/12/24 09:56:21;;;;;;;;;;;9.30;99.90;;;;;;5054670;28;19978;-80
2022/12/24 09:58:54;;;;;;;;;;;9.30;99.90;;;;;;5056266;28;19963;-80
2022/12/24 10:01:20;;;;;;;;;;;9.30;99.90;;;;;;5054549;28;20330;-78
2022/12/24 10:03:46;;;;;;;;;;;9.30;99.90;;;;;;5055481;28;19913;-78
2022/12/24 10:06:14;;;;;;;;;;;9.30;99.90;;;;;;5056338;28;19917;-82
2022/12/24 10:08:49;;;;;;;;;;;9.40;99.90;;;;;;5043442;28;19916;-77
2022/12/24 10:11:22;;;;;;;;;;;9.40;99.90;;;;;;5049260;28;19924;-80
2022/12/24 10:13:57;;;;;;;;;;;9.50;99.90;;;;;;5051606;28;19917;-76
2022/12/24 10:16:27;;;;;;;;;;;9.50;99.90;;;;;;5054062;28;19917;-81
2022/12/24 10:18:56;;;;;;;;;;;9.50;99.90;;;;;;5050602;28;19912;-81
2022/12/24 10:21:40;;;;;;;;;;;9.50;99.90;;;;;;5053206;28;20243;-81
2022/12/24 10:24:18;;;;;;;;;;;9.60;99.90;;;;;;5054958;28;19913;-80
2022/12/24 10:26:47;;;;;;;;;;;9.70;99.90;;;;;;5053679;28;20212;-82
2022/12/24 10:29:15;;;;;;;;;;;9.80;99.90;;;;;;5038096;28;19945;-80
2022/12/24 10:31:50;;;;;;;;;;;9.80;99.90;;;;;;5053556;28;20211;-84
2022/12/24 10:34:22;;;;;;;;;;;9.80;99.90;;;;;;5054203;28;20066;-80
2022/12/24 10:36:48;;;;;;;;;;;9.90;99.90;;;;;;5052647;28;20205;-77
2022/12/24 10:39:19;;;;;;;;;;;9.90;99.90;;;;;;5054284;28;19916;-79
2022/12/24 10:41:49;;;;;;;;;;;9.90;99.90;;;;;;5053327;28;19996;-81
2022/12/24 10:44:17;;;;;;;;;;;10.00;99.90;;;;;;5054653;28;19920;-80
2022/12/24 10:46:43;;;;;;;;;;;10.00;99.90;;;;;;5049531;28;19920;-77
2022/12/24 10:49:14;;;;;;;;;;;10.00;99.90;;;;;;5054147;28;19913;-80
2022/12/24 10:51:42;;;;;;;;;;;9.90;99.90;;;;;;5044585;28;19921;-80
2022/12/24 10:54:12;;;;;;;;;;;9.90;99.90;;;;;;5053151;28;19919;-77
2022/12/24 10:56:39;;;;;;;;;;;9.90;99.90;;;;;;5052378;28;19943;-81
2022/12/24 10:59:05;;;;;;;;;;;9.90;99.90;;;;;;5049585;28;19921;-79
2022/12/24 11:01:48;;;;;;;;;;;9.90;99.90;;;;;;5053532;28;19940;-81
2022/12/24 11:04:18;;;;;;;;;;;9.80;99.90;;;;;;5054809;28;20228;-81
2022/12/24 11:07:04;;;;;;;;;;;9.90;99.90;;;;;;5051624;28;19920;-80
2022/12/24 11:09:31;;;;;;;;;;;9.90;99.90;;;;;;5050708;28;19909;-79
2022/12/24 11:11:58;;;;;;;;;;;10.10;99.90;;;;;;5047548;28;20368;-79
2022/12/24 11:14:24;;;;;;;;;;;10.10;99.90;;;;;;5052388;28;20219;-79
2022/12/24 11:16:54;;;;;;;;;;;10.10;99.90;;;;;;5049982;28;19909;-79
2022/12/24 11:19:38;;;;;;;;;;;10.20;99.90;;;;;;5050556;28;19915;-80
2022/12/24 11:22:06;;;;;;;;;;;10.20;99.90;;;;;;5048631;28;20005;-79
2022/12/24 11:24:36;;;;;;;;;;;10.20;99.90;;;;;;5052380;28;20520;-80
2022/12/24 11:27:23;;;;;;;;;;;10.20;99.90;;;;;;5050069;28;19983;-79
2022/12/24 11:29:49;;;;;;;;;;;10.10;99.90;;;;;;5043169;28;19913;-77
2022/12/24 11:32:19;;;;;;;;;;;10.10;99.90;;;;;;5041610;28;20342;-77
2022/12/24 11:34:45;;;;;;;;;;;10.10;99.90;;;;;;5045494;28;19920;-80
2022/12/24 11:37:16;;;;;;;;;;;10.00;99.90;;;;;;5062245;28;19920;-81
2022/12/24 11:39:56;;;;;;;;;;;10.00;99.90;;;;;;5052096;28;19920;-82
2022/12/24 11:42:22;;;;;;;;;;;10.00;99.90;;;;;;5050438;28;20203;-81
2022/12/24 11:44:49;;;;;;;;;;;10.00;99.90;;;;;;5052224;28;20016;-81
2022/12/24 11:47:15;;;;;;;;;;;9.90;99.90;;;;;;5049002;28;19935;-77
2022/12/24 11:49:40;;;;;;;;;;;9.90;99.90;;;;;;5050700;28;19913;-79
2022/12/24 11:52:09;;;;;;;;;;;10.00;99.90;;;;;;5050502;28;19916;-76
2022/12/24 11:54:43;;;;;;;;;;;10.00;99.90;;;;;;5047571;28;19913;-80
2022/12/24 11:57:10;;;;;;;;;;;10.00;99.90;;;;;;5046954;28;20299;-79
2022/12/24 11:59:41;;;;;;;;;;;10.00;99.90;;;;;;5048974;28;19948;-77
2022/12/24 12:02:17;;;;;;;;;;;10.00;99.90;;;;;;5047887;28;20227;-75
2022/12/24 12:04:43;;;;;;;;;;;10.00;99.90;;;;;;5051667;28;20011;-78
2022/12/24 12:07:13;;;;;;;;;;;10.00;99.90;;;;;;5050967;28;19959;-80
2022/12/24 12:09:42;;;;;;;;;;;10.00;99.90;;;;;;5051688;28;20311;-79
2022/12/24 12:12:16;;;;;;;;;;;10.00;99.90;;;;;;5051121;28;20274;-79
2022/12/24 12:14:45;;;;;;;;;;;10.00;99.90;;;;;;5051451;28;19936;-79
2022/12/24 12:17:11;;;;;;;;;;;10.10;99.90;;;;;;5044539;28;19967;-80
2022/12/24 12:19:36;;;;;;;;;;;10.10;99.90;;;;;;5052608;28;19912;-79
2022/12/24 12:22:04;;;;;;;;;;;10.10;99.90;;;;;;5044073;28;19959;-81
2022/12/24 12:24:39;;;;;;;;;;;10.10;99.90;;;;;;5045922;28;20282;-79
2022/12/24 12:27:09;;;;;;;;;;;10.10;99.90;;;;;;5049018;28;19913;-77
2022/12/24 12:29:36;;;;;;;;;;;10.10;99.90;;;;;;5045918;28;19929;-81
2022/12/24 12:32:12;;;;;;;;;;;10.10;99.90;;;;;;5041767;28;19909;-78
2022/12/24 12:34:39;;;;;;;;;;;10.10;99.90;;;;;;5051091;28;19920;-78
2022/12/24 12:37:13;;;;;;;;;;;10.00;99.90;;;;;;5051313;28;20000;-81
2022/12/24 12:39:39;;;;;;;;;;;10.00;99.90;;;;;;5050880;28;19968;-78
2022/12/24 12:42:21;;;;;;;;;;;10.00;99.90;;;;;;5040590;28;19963;-79
2022/12/24 12:44:59;;;;;;;;;;;9.90;99.90;;;;;;5049213;28;19925;-80
2022/12/24 12:47:27;;;;;;;;;;;9.90;99.90;;;;;;5051468;28;20316;-80
2022/12/24 12:50:13;;;;;;;;;;;9.90;99.90;;;;;;5036862;28;20262;-80
2022/12/24 12:52:57;;;;;;;;;;;9.90;99.90;;;;;;5049630;28;19916;-79
2022/12/24 12:55:29;;;;;;;;;;;9.90;99.90;;;;;;5050632;28;20232;-80
2022/12/24 12:57:59;;;;;;;;;;;10.00;99.90;;;;;;5051959;28;21219;-80
2022/12/24 13:00:26;;;;;;;;;;;10.10;99.90;;;;;;5045001;28;19920;-79
2022/12/24 13:02:52;;;;;;;;;;;10.10;99.90;;;;;;5035506;28;20366;-83
2022/12/24 13:05:40;;;;;;;;;;;10.10;99.90;;;;;;5046765;28;19957;-81
2022/12/24 13:08:15;;;;;;;;;;;10.00;99.90;;;;;;5049865;28;19919;-79
2022/12/24 13:11:00;;;;;;;;;;;10.00;99.90;;;;;;5047672;28;20321;-81
2022/12/24 13:13:41;;;;;;;;;;;10.00;99.90;;;;;;5054616;28;20006;-81
2022/12/24 13:16:21;;;;;;;;;;;10.00;99.90;;;;;;5048284;28;19962;-79
2022/12/24 13:18:53;;;;;;;;;;;10.00;99.90;;;;;;5041375;28;19916;-80
2022/12/24 13:21:24;;;;;;;;;;;10.00;99.90;;;;;;5055963;28;19976;-79
2022/12/24 13:23:50;;;;;;;;;;;10.00;99.90;;;;;;5054608;28;19997;-80
2022/12/24 13:26:16;;;;;;;;;;;10.00;99.90;;;;;;5056785;28;19920;-79
2022/12/24 13:28:42;;;;;;;;;;;10.00;99.90;;;;;;5052506;28;19935;-78
2022/12/24 13:31:10;;;;;;;;;;;9.90;99.90;;;;;;5055393;28;20312;-79
2022/12/24 13:33:36;;;;;;;;;;;10.00;99.90;;;;;;5054991;28;19916;-80
2022/12/24 13:36:02;;;;;;;;;;;10.00;99.90;;;;;;5055576;28;19908;-81
2022/12/24 13:38:30;;;;;;;;;;;10.10;99.90;;;;;;5052901;28;19958;-81
2022/12/24 13:41:15;;;;;;;;;;;10.00;99.90;;;;;;5056171;28;19931;-79
2022/12/24 13:43:59;;;;;;;;;;;10.00;99.90;;;;;;5051278;28;20023;-80
2022/12/24 13:46:44;;;;;;;;;;;10.00;99.90;;;;;;5054915;28;19948;-79
2022/12/24 13:49:11;;;;;;;;;;;10.00;99.90;;;;;;5045819;28;19913;-77
2022/12/24 13:51:36;;;;;;;;;;;9.90;99.90;;;;;;5055228;28;20003;-78
2022/12/24 13:54:02;;;;;;;;;;;9.90;99.90;;;;;;5046684;28;20119;-81
2022/12/24 13:56:30;;;;;;;;;;;9.90;99.90;;;;;;5040589;28;20334;-80
2022/12/24 13:59:09;;;;;;;;;;;9.90;99.90;;;;;;5051727;28;19920;-80
2022/12/24 14:01:37;;;;;;;;;;;9.90;99.90;;;;;;5051369;28;19924;-80
2022/12/24 14:04:04;;;;;;;;;;;9.80;99.90;;;;;;5052581;28;19916;-80
2022/12/24 14:06:35;;;;;;;;;;;9.80;99.90;;;;;;5052334;28;21257;-80
2022/12/24 14:09:20;;;;;;;;;;;9.70;99.90;;;;;;5054114;28;19917;-79
2022/12/24 14:12:06;;;;;;;;;;;9.60;99.90;;;;;;5055445;28;19920;-79
2022/12/24 14:14:33;;;;;;;;;;;9.50;99.90;;;;;;5044246;28;20328;-79
2022/12/24 14:17:01;;;;;;;;;;;9.50;99.90;;;;;;5054517;28;19919;-79
2022/12/24 14:19:40;;;;;;;;;;;9.40;99.90;;;;;;5054648;28;19909;-78
2022/12/24 14:22:08;;;;;;;;;;;9.40;99.90;;;;;;5053542;28;19923;-79
2022/12/24 14:24:36;;;;;;;;;;;9.40;99.90;;;;;;5053056;28;20321;-81
2022/12/24 14:27:23;;;;;;;;;;;9.40;99.90;;;;;;5053690;28;20031;-78
2022/12/24 14:30:04;;;;;;;;;;;9.30;99.90;;;;;;5049463;28;20035;-79
2022/12/24 14:32:37;;;;;;;;;;;9.30;99.90;;;;;;5047657;28;19916;-79
2022/12/24 14:35:12;;;;;;;;;;;9.20;99.90;;;;;;5044234;28;19913;-79
2022/12/24 14:37:38;;;;;;;;;;;9.10;99.90;;;;;;5047602;28;19920;-78
2022/12/24 14:40:05;;;;;;;;;;;9.10;99.90;;;;;;5049835;28;19931;-79
2022/12/24 14:42:50;;;;;;;;;;;9.00;99.90;;;;;;5049066;28;19909;-79
2022/12/24 14:45:20;;;;;;;;;;;9.00;99.90;;;;;;5052462;28;20250;-80
2022/12/24 14:47:52;;;;;;;;;;;8.90;99.90;;;;;;5038086;28;19928;-79